Time;durP1;ratioP1;P1;durP2;ratioP2;P2;SDS_P1;SDS_P2;PMS_P1;PMS_P2;Temp;Humidity;BMP_temperature;BMP_pressure;BME280_temperature;BME280_humidity;BME280_pressure;Samples;Min_cycle;Max_cycle;Signal;HPM_P1;HPM_P2
2023/03/13 00:04:11;;;;;;;30.63;10.52;;;;;;;6.33;100.00;100242.28;10228966;28;20053;-69
2023/03/13 00:09:11;;;;;;;37.30;9.45;;;;;;;6.29;100.00;100230.44;10220133;28;20103;-68
2023/03/13 00:14:08;;;;;;;26.90;10.05;;;;;;;6.28;100.00;100217.97;10224985;28;20415;-70
2023/03/13 00:19:08;;;;;;;28.42;10.77;;;;;;;6.28;100.00;100201.66;10221170;28;20132;-68
2023/03/13 00:24:04;;;;;;;24.95;10.35;;;;;;;6.22;100.00;100200.16;10217732;28;20426;-69
2023/03/13 00:29:01;;;;;;;35.03;12.07;;;;;;;6.18;100.00;100193.72;10219718;28;20069;-68
2023/03/13 00:34:00;;;;;;;35.72;9.30;;;;;;;6.19;100.00;100198.03;10218497;28;20376;-69
2023/03/13 00:38:58;;;;;;;28.88;9.95;;;;;;;6.16;100.00;100195.94;10225114;28;20132;-68
2023/03/13 00:43:54;;;;;;;32.72;10.20;;;;;;;6.25;100.00;100186.00;10221861;28;20491;-69
2023/03/13 00:48:51;;;;;;;29.15;9.88;;;;;;;6.34;100.00;100167.88;10220353;28;20480;-69
2023/03/13 00:53:48;;;;;;;35.80;11.45;;;;;;;6.32;100.00;100156.53;10226403;28;20049;-70
2023/03/13 00:58:46;;;;;;;36.25;11.57;;;;;;;6.35;100.00;100147.75;10222085;28;20157;-70
2023/03/13 01:03:45;;;;;;;34.15;10.05;;;;;;;6.41;100.00;100141.13;10212005;28;20038;-69
2023/03/13 01:08:42;;;;;;;33.75;10.38;;;;;;;6.45;100.00;100142.13;10185435;28;1032248;-69
2023/03/13 01:13:39;;;;;;;27.83;10.50;;;;;;;6.47;100.00;100134.47;10221922;28;20111;-70
2023/03/13 01:18:38;;;;;;;35.03;12.20;;;;;;;6.52;100.00;100130.84;10221547;28;20408;-70
2023/03/13 01:23:35;;;;;;;25.88;9.75;;;;;;;6.51;100.00;100118.38;10216548;28;20038;-69
2023/03/13 01:28:32;;;;;;;37.72;11.00;;;;;;;6.51;100.00;100113.75;10224898;28;20043;-70
2023/03/13 01:33:29;;;;;;;35.92;11.48;;;;;;;6.50;100.00;100095.06;10214721;28;20561;-70
2023/03/13 01:38:25;;;;;;;34.17;11.85;;;;;;;6.49;100.00;100080.66;10225872;28;20137;-70
2023/03/13 01:43:28;;;;;;;33.63;12.80;;;;;;;6.50;100.00;100063.25;10226815;28;20072;-72
2023/03/13 01:48:36;;;;;;;35.67;10.10;;;;;;;6.57;100.00;100057.41;10225158;28;20041;-72
2023/03/13 01:53:35;;;;;;;31.50;12.00;;;;;;;6.60;100.00;100034.25;10219499;28;20047;-72
2023/03/13 01:58:32;;;;;;;30.65;12.93;;;;;;;6.55;100.00;100031.66;10218237;28;20073;-72
2023/03/13 02:08:50;;;;;;;32.40;11.52;;;;;;;6.36;100.00;100002.75;10754610;22;25073;-67
2023/03/13 02:13:49;;;;;;;32.22;11.85;;;;;;;6.32;100.00;99999.84;10207441;28;20713;-68
2023/03/13 02:18:46;;;;;;;34.83;12.05;;;;;;;6.29;100.00;99986.09;10222926;28;20071;-71
2023/03/13 02:23:57;;;;;;;35.70;12.68;;;;;;;6.28;100.00;99981.75;10209690;28;20129;-71
2023/03/13 02:28:54;;;;;;;39.33;12.07;;;;;;;6.27;100.00;99966.59;10220320;28;20076;-68
2023/03/13 02:33:50;;;;;;;40.20;11.18;;;;;;;6.24;100.00;99959.03;10210740;28;20037;-70
2023/03/13 02:38:58;;;;;;;31.70;12.25;;;;;;;6.22;100.00;99947.69;10227639;28;20423;-70
2023/03/13 02:43:54;;;;;;;38.95;12.15;;;;;;;6.21;100.00;99946.09;10215431;28;20739;-70
2023/03/13 02:48:54;;;;;;;34.63;11.10;;;;;;;6.18;100.00;99939.38;10243446;28;20104;-68
2023/03/13 02:53:52;;;;;;;41.60;11.15;;;;;;;6.19;100.00;99937.44;10225753;28;20486;-67
2023/03/13 02:58:49;;;;;;;37.17;11.15;;;;;;;6.17;100.00;99917.94;10227679;28;20045;-67
2023/03/13 03:03:46;;;;;;;41.10;10.70;;;;;;;6.17;100.00;99907.88;10212441;28;20138;-70
2023/03/13 03:08:43;;;;;;;29.92;10.07;;;;;;;6.20;100.00;99895.63;10236265;28;20462;-70
2023/03/13 03:13:39;;;;;;;29.20;10.07;;;;;;;6.24;100.00;99891.16;10217413;28;20042;-70
2023/03/13 03:18:37;;;;;;;29.23;9.70;;;;;;;6.24;100.00;99885.75;10228823;28;20586;-69
2023/03/13 03:23:34;;;;;;;29.85;9.85;;;;;;;6.22;100.00;99872.50;10222471;28;20048;-71
2023/03/13 03:28:30;;;;;;;30.52;9.23;;;;;;;6.23;100.00;99862.44;10217061;28;20128;-69
2023/03/13 03:33:27;;;;;;;36.22;10.60;;;;;;;6.21;100.00;99859.22;10217132;28;20064;-71
2023/03/13 03:38:23;;;;;;;36.88;11.00;;;;;;;6.21;100.00;99842.94;10223577;28;20144;-70
2023/03/13 03:43:20;;;;;;;37.10;9.30;;;;;;;6.18;100.00;99843.56;10224722;28;20124;-70
2023/03/13 03:48:16;;;;;;;43.00;10.65;;;;;;;6.15;100.00;99823.28;10214091;28;20395;-72
2023/03/13 03:53:13;;;;;;;39.28;9.75;;;;;;;6.16;100.00;99813.22;10225343;28;20059;-72
2023/03/13 03:58:09;;;;;;;50.88;10.52;;;;;;;6.16;100.00;99805.06;10221317;28;20457;-73
2023/03/13 04:03:06;;;;;;;38.55;9.63;;;;;;;6.16;100.00;99788.78;10225557;28;20510;-72
2023/03/13 04:08:02;;;;;;;28.60;7.78;;;;;;;6.15;100.00;99781.75;10227251;28;20136;-73
2023/03/13 04:12:59;;;;;;;26.23;8.13;;;;;;;6.18;100.00;99779.22;10216298;28;20050;-72
2023/03/13 04:17:55;;;;;;;34.03;7.95;;;;;;;6.19;100.00;99763.72;10215333;28;20479;-73
2023/03/13 04:22:51;;;;;;;28.13;7.65;;;;;;;6.22;100.00;99757.66;10239918;28;20049;-72
2023/03/13 04:27:48;;;;;;;30.23;7.93;;;;;;;6.22;100.00;99731.34;10219415;28;20053;-72
2023/03/13 04:32:44;;;;;;;36.72;9.57;;;;;;;6.21;100.00;99712.66;10215979;28;20052;-74
2023/03/13 04:37:41;;;;;;;32.35;8.00;;;;;;;6.23;100.00;99694.13;10212282;28;20125;-75
2023/03/13 04:42:37;;;;;;;35.35;9.73;;;;;;;6.19;100.00;99682.31;10227637;28;20128;-74
2023/03/13 04:47:34;;;;;;;24.63;7.47;;;;;;;6.19;100.00;99666.81;10219942;28;20057;-74
2023/03/13 04:52:30;;;;;;;23.77;7.50;;;;;;;6.13;100.00;99651.78;10220127;28;20068;-74
2023/03/13 04:57:27;;;;;;;26.50;7.82;;;;;;;6.11;100.00;99643.97;10224263;28;20072;-73
2023/03/13 05:02:23;;;;;;;23.25;9.10;;;;;;;6.08;100.00;99628.31;10215246;28;20053;-71
2023/03/13 05:07:20;;;;;;;18.50;7.07;;;;;;;6.08;100.00;99601.19;10218688;28;20099;-72
2023/03/13 05:12:16;;;;;;;26.77;7.85;;;;;;;6.06;100.00;99581.69;10215979;28;20414;-72
2023/03/13 05:17:12;;;;;;;28.05;7.85;;;;;;;6.08;100.00;99557.75;10215516;28;20061;-72
2023/03/13 05:22:09;;;;;;;40.00;8.45;;;;;;;6.08;100.00;99552.31;10215201;28;20053;-71
2023/03/13 05:27:05;;;;;;;21.42;6.47;;;;;;;6.09;100.00;99536.84;10216261;28;20503;-71
2023/03/13 05:32:02;;;;;;;32.95;8.10;;;;;;;6.10;100.00;99527.56;10223364;28;20049;-72
2023/03/13 05:36:58;;;;;;;36.03;6.72;;;;;;;6.13;100.00;99542.41;10202427;28;20562;-72
2023/03/13 05:41:55;;;;;;;31.35;7.97;;;;;;;6.08;100.00;99525.19;10222828;28;20048;-72
2023/03/13 05:46:51;;;;;;;26.58;7.20;;;;;;;6.15;100.00;99513.88;10219330;28;20052;-74
2023/03/13 05:51:48;;;;;;;30.17;8.40;;;;;;;6.17;100.00;99508.09;10224032;28;20076;-74
2023/03/13 05:56:47;;;;;;;23.58;6.53;;;;;;;6.19;100.00;99495.81;10217474;28;20088;-74
2023/03/13 06:01:44;;;;;;;24.08;6.90;;;;;;;6.22;100.00;99480.81;10227258;28;20049;-73
2023/03/13 06:06:40;;;;;;;20.05;6.97;;;;;;;6.22;100.00;99476.19;10224692;28;20045;-73
2023/03/13 06:11:37;;;;;;;15.27;5.55;;;;;;;6.28;100.00;99479.53;10225524;28;20068;-73
2023/03/13 06:16:33;;;;;;;16.10;5.55;;;;;;;6.34;100.00;99470.13;10224989;28;20045;-71
2023/03/13 06:21:30;;;;;;;18.52;5.43;;;;;;;6.44;100.00;99461.66;10230052;28;20048;-70
2023/03/13 06:26:26;;;;;;;9.95;4.10;;;;;;;6.56;100.00;99455.56;10220646;28;20534;-72
2023/03/13 06:31:23;;;;;;;10.40;4.50;;;;;;;6.68;100.00;99457.63;10219885;28;20077;-70
2023/03/13 06:36:20;;;;;;;20.13;4.28;;;;;;;6.74;100.00;99459.06;10215721;28;20124;-70
2023/03/13 06:41:17;;;;;;;8.30;4.00;;;;;;;6.83;100.00;99429.94;10225440;28;20133;-73
2023/03/13 06:46:18;;;;;;;10.27;3.60;;;;;;;6.88;100.00;99421.63;10217316;28;20483;-71
2023/03/13 06:51:17;;;;;;;6.10;3.13;;;;;;;6.94;100.00;99417.63;10223605;28;20088;-73
2023/03/13 06:56:13;;;;;;;7.97;3.13;;;;;;;7.02;100.00;99396.16;10228108;28;20477;-72
2023/03/13 07:01:12;;;;;;;9.00;3.60;;;;;;;7.06;100.00;99383.53;10226514;28;20400;-72
2023/03/13 07:06:11;;;;;;;6.20;3.28;;;;;;;7.13;100.00;99383.81;10211192;28;20046;-72
2023/03/13 07:11:10;;;;;;;8.07;3.20;;;;;;;7.22;100.00;99392.72;10222466;28;20659;-71
2023/03/13 07:16:08;;;;;;;8.70;3.90;;;;;;;7.28;100.00;99375.06;10220008;28;20087;-73
2023/03/13 07:21:05;;;;;;;7.10;3.47;;;;;;;7.38;100.00;99363.84;10213869;28;20042;-72
2023/03/13 07:26:05;;;;;;;6.93;3.33;;;;;;;7.47;100.00;99365.69;10236878;28;20057;-69
2023/03/13 07:31:13;;;;;;;8.75;3.53;;;;;;;7.54;100.00;99345.03;10218780;28;20046;-72
2023/03/13 07:36:11;;;;;;;6.38;3.22;;;;;;;7.63;100.00;99352.31;10215043;28;20053;-72
2023/03/13 07:41:11;;;;;;;8.23;4.53;;;;;;;7.70;100.00;99353.34;10219306;28;20048;-71
2023/03/13 07:46:10;;;;;;;6.97;3.78;;;;;;;7.76;100.00;99338.44;10214100;28;20145;-68
2023/03/13 07:51:19;;;;;;;9.13;3.78;;;;;;;7.90;100.00;99329.22;10221527;28;20065;-68
2023/03/13 07:56:25;;;;;;;5.75;3.65;;;;;;;8.11;100.00;99332.69;10211318;28;20060;-68
2023/03/13 08:01:26;;;;;;;7.05;3.10;;;;;;;8.34;100.00;99326.88;10220641;28;20064;-69
2023/03/13 08:06:29;;;;;;;7.05;4.22;;;;;;;8.42;100.00;99326.00;10213313;28;20091;-74
2023/03/13 08:11:28;;;;;;;7.78;4.40;;;;;;;8.61;100.00;99309.16;10217625;28;20049;-74
2023/03/13 08:16:31;;;;;;;8.23;4.32;;;;;;;8.61;100.00;99309.16;10216068;28;20124;-73
2023/03/13 08:21:29;;;;;;;11.63;6.38;;;;;;;8.94;100.00;99311.75;10218283;28;20046;-73
2023/03/13 08:26:28;;;;;;;7.63;5.25;;;;;;;9.05;100.00;99296.53;10213234;28;20396;-71
2023/03/13 08:31:26;;;;;;;9.18;4.10;;;;;;;9.14;100.00;99304.56;10221848;28;20042;-71
2023/03/13 08:36:34;;;;;;;8.45;4.85;;;;;;;9.23;100.00;99296.28;10222205;28;20111;-71
2023/03/13 08:41:35;;;;;;;6.80;4.97;;;;;;;9.33;100.00;99304.00;10217687;28;20069;-71
2023/03/13 08:46:34;;;;;;;6.97;5.00;;;;;;;9.32;100.00;99288.75;10218985;28;20103;-71
2023/03/13 08:51:31;;;;;;;7.70;5.18;;;;;;;9.40;100.00;99274.22;10215061;28;21158;-72
2023/03/13 08:56:29;;;;;;;9.90;5.85;;;;;;;9.44;100.00;99277.81;10203357;28;20049;-71
2023/03/13 09:01:28;;;;;;;9.30;6.40;;;;;;;9.61;100.00;99267.78;10222408;28;20796;-71
2023/03/13 09:06:25;;;;;;;10.57;5.90;;;;;;;9.72;100.00;99285.25;10221103;28;20422;-70
2023/03/13 09:11:21;;;;;;;10.55;5.32;;;;;;;9.75;100.00;99273.66;10221571;28;20076;-71
2023/03/13 09:16:21;;;;;;;10.00;6.03;;;;;;;9.92;100.00;99255.38;10216945;28;20045;-72
2023/03/13 09:21:23;;;;;;;8.52;6.07;;;;;;;9.98;100.00;99270.34;10210174;28;20511;-72
2023/03/13 09:26:20;;;;;;;11.80;7.72;;;;;;;10.05;100.00;99244.03;10214148;28;20111;-72
2023/03/13 09:31:25;;;;;;;8.80;6.68;;;;;;;10.09;100.00;99238.66;10216093;28;20114;-71
2023/03/13 09:36:22;;;;;;;8.30;6.15;;;;;;;10.15;100.00;99264.56;10216326;28;20049;-70
2023/03/13 09:41:21;;;;;;;8.90;6.30;;;;;;;10.22;100.00;99248.38;10217088;28;20548;-71
2023/03/13 09:46:32;;;;;;;8.23;6.32;;;;;;;10.30;100.00;99252.09;10225764;28;20056;-72
2023/03/13 09:51:37;;;;;;;8.15;6.25;;;;;;;10.32;100.00;99268.94;10227129;28;20087;-72
2023/03/13 09:56:43;;;;;;;10.73;6.60;;;;;;;10.34;100.00;99265.88;10223818;28;20060;-72
2023/03/13 10:01:42;;;;;;;9.88;6.72;;;;;;;10.44;100.00;99265.31;10216585;28;20041;-72
2023/03/13 10:06:43;;;;;;;11.93;7.43;;;;;;;10.47;100.00;99286.50;10228108;28;20045;-72
2023/03/13 10:11:46;;;;;;;9.82;6.90;;;;;;;10.47;100.00;99264.63;10224671;28;20140;-72
2023/03/13 10:16:54;;;;;;;11.48;7.60;;;;;;;10.51;100.00;99265.50;10221178;28;20136;-72
2023/03/13 10:21:53;;;;;;;13.93;6.68;;;;;;;10.63;100.00;99276.38;10235668;28;20053;-72
2023/03/13 10:26:50;;;;;;;9.80;7.00;;;;;;;10.76;100.00;99279.00;10219733;28;20061;-72
2023/03/13 10:31:56;;;;;;;11.25;6.72;;;;;;;10.68;100.00;99292.50;10223629;28;20049;-72
2023/03/13 10:36:59;;;;;;;9.57;6.43;;;;;;;10.92;100.00;99283.28;10216812;28;20045;-71
2023/03/13 10:42:18;;;;;;;6.68;5.97;;;;;;;11.36;100.00;99304.22;10215949;28;20077;-71
2023/03/13 10:47:15;;;;;;;8.98;5.50;;;;;;;11.67;100.00;99277.88;10217257;28;20408;-72
2023/03/13 10:52:28;;;;;;;6.10;5.35;;;;;;;11.91;100.00;99258.44;10225937;28;20053;-72
2023/03/13 10:57:24;;;;;;;;;;;;;;;12.17;100.00;99243.25;10222406;28;20051;-73
2023/03/13 11:02:35;;;;;;;10.90;6.65;;;;;;;11.90;100.00;99250.59;10225696;28;19979;-72
2023/03/13 11:07:34;;;;;;;11.63;6.88;;;;;;;11.70;100.00;99258.00;10215299;28;20084;-67
2023/03/13 11:12:34;;;;;;;8.43;6.88;;;;;;;11.62;100.00;99239.84;10225621;28;20068;-67
2023/03/13 11:17:40;;;;;;;8.27;6.53;;;;;;;11.63;100.00;99241.41;10219870;28;20057;-67
2023/03/13 11:23:09;;;;;;;9.40;7.50;;;;;;;12.15;100.00;99218.19;10218318;28;20057;-67
2023/03/13 11:28:28;;;;;;;9.05;6.65;;;;;;;12.64;100.00;99209.19;10212520;28;20092;-68
2023/03/13 11:33:57;;;;;;;7.68;5.70;;;;;;;13.18;100.00;99172.34;10225543;28;20084;-68
2023/03/13 11:39:20;;;;;;;6.45;5.60;;;;;;;13.28;100.00;99170.13;10219295;28;20063;-68
2023/03/13 11:44:28;;;;;;;9.77;6.10;;;;;;;13.14;100.00;99174.25;10227708;28;20084;-67
2023/03/13 11:49:38;;;;;;;7.30;5.63;;;;;;;13.07;100.00;99152.19;10220954;28;20471;-67
2023/03/13 11:54:47;;;;;;;9.65;5.78;;;;;;;12.87;100.00;99153.50;10222769;28;20064;-68
2023/03/13 12:00:01;;;;;;;9.75;7.38;;;;;;;12.90;100.00;99152.75;10223825;28;20057;-66
2023/03/13 12:05:09;;;;;;;8.80;6.10;;;;;;;13.86;100.00;99142.13;10221256;28;20058;-67
2023/03/13 12:10:14;;;;;;;6.50;5.90;;;;;;;13.87;100.00;99151.94;10231064;28;20136;-71
2023/03/13 12:15:38;;;;;;;6.80;6.10;;;;;;;13.64;100.00;99147.38;10218801;28;20104;-71
2023/03/13 12:20:43;;;;;;;8.50;5.97;;;;;;;14.48;100.00;99123.00;10241481;28;20069;-71
2023/03/13 12:26:09;;;;;;;7.07;6.38;;;;;;;14.44;100.00;99116.66;10220057;28;20037;-71
2023/03/13 12:31:21;;;;;;;7.70;6.20;;;;;;;15.86;100.00;99097.59;10227469;28;20057;-71
2023/03/13 12:36:40;;;;;;;8.27;7.13;;;;;;;15.43;100.00;99102.97;10235142;28;20468;-71
2023/03/13 12:41:43;;;;;;;7.32;6.63;;;;;;;14.87;100.00;99099.63;10230657;28;20124;-71
2023/03/13 12:46:46;;;;;;;7.53;6.90;;;;;;;17.01;100.00;99085.19;10229254;28;20442;-71
2023/03/13 12:51:51;;;;;;;8.85;7.88;;;;;;;17.93;100.00;99067.69;10229810;28;20497;-71
2023/03/13 12:57:08;;;;;;;10.75;7.95;;;;;;;16.95;100.00;99056.41;10225765;28;20499;-71
2023/03/13 13:02:19;;;;;;;8.32;7.43;;;;;;;15.30;100.00;99066.78;10223716;28;20507;-71
2023/03/13 13:07:23;;;;;;;7.97;7.18;;;;;;;15.18;100.00;99054.16;10225558;28;20531;-71
2023/03/13 13:12:22;;;;;;;8.10;7.30;;;;;;;16.44;100.00;99038.44;10228109;28;20065;-72
2023/03/13 13:17:30;;;;;;;7.68;6.90;;;;;;;17.52;100.00;99026.88;10227440;28;20079;-71
2023/03/13 13:22:36;;;;;;;8.18;7.38;;;;;;;16.44;100.00;99049.47;10223687;28;20061;-70
2023/03/13 13:27:35;;;;;;;7.65;6.95;;;;;;;16.30;100.00;99027.44;10223691;28;20049;-70
2023/03/13 13:32:34;;;;;;;10.15;7.13;;;;;;;18.06;100.00;99043.88;10222611;28;20422;-70
2023/03/13 13:37:32;;;;;;;7.50;6.70;;;;;;;17.28;100.00;98990.75;10227142;28;20136;-70
2023/03/13 13:42:32;;;;;;;7.50;6.65;;;;;;;16.37;100.00;98988.81;10225238;28;20513;-70
2023/03/13 13:47:31;;;;;;;7.20;6.50;;;;;;;16.61;100.00;98982.41;10243124;28;20053;-70
2023/03/13 13:52:32;;;;;;;8.25;7.25;;;;;;;16.58;100.00;98976.91;10229398;28;20160;-70
2023/03/13 13:57:35;;;;;;;7.65;7.00;;;;;;;16.22;100.00;98968.75;10220530;28;20539;-71
2023/03/13 14:02:43;;;;;;;8.15;7.35;;;;;;;16.46;100.00;98997.44;10227876;28;20099;-70
2023/03/13 14:07:49;;;;;;;7.25;6.53;;;;;;;16.63;100.00;98957.94;10217929;28;20456;-69
2023/03/13 14:12:50;;;;;;;7.70;7.00;;;;;;;16.83;100.00;98944.47;10226761;28;20499;-70
2023/03/13 14:17:50;;;;;;;7.68;7.07;;;;;;;16.93;100.00;98959.41;10227622;28;20076;-70
2023/03/13 14:22:48;;;;;;;8.48;7.63;;;;;;;17.07;100.00;98924.63;10226571;28;20565;-70
2023/03/13 14:27:46;;;;;;;8.68;7.32;;;;;;;17.37;100.00;98933.06;10223476;28;20058;-70
2023/03/13 14:32:43;;;;;;;7.90;7.10;;;;;;;16.58;100.00;98924.50;10219956;28;20132;-70
2023/03/13 14:37:45;;;;;;;7.65;7.00;;;;;;;17.58;100.00;98936.84;10231346;28;20502;-70
2023/03/13 14:42:46;;;;;;;7.20;6.50;;;;;;;17.62;100.00;98904.44;10230154;28;20073;-70
2023/03/13 14:47:42;;;;;;;7.53;6.93;;;;;;;17.01;100.00;98905.72;10232933;28;20054;-71
2023/03/13 14:52:49;;;;;;;7.55;6.85;;;;;;;16.42;100.00;98897.38;10230646;28;20071;-71
2023/03/13 14:58:30;;;;;;;9.75;6.97;;;;;;;16.49;100.00;98913.09;10224628;28;20072;-73
2023/03/13 15:03:28;;;;;;;8.30;7.50;;;;;;;16.12;100.00;98882.13;10145387;28;20217;-71
2023/03/13 15:08:25;;;;;;;8.60;7.00;;;;;;;15.88;100.00;98885.78;10214219;28;20617;-71
2023/03/13 15:13:35;;;;;;;7.80;7.00;;;;;;;15.78;100.00;98871.63;10219744;28;20053;-71
2023/03/13 15:18:33;;;;;;;6.97;6.38;;;;;;;16.31;100.00;98885.59;10229798;28;20053;-71
2023/03/13 15:23:30;;;;;;;6.93;6.38;;;;;;;17.12;100.00;98866.19;10231645;28;20045;-71
2023/03/13 15:28:27;;;;;;;7.65;7.00;;;;;;;15.90;100.00;98872.38;10231521;28;20049;-71
2023/03/13 15:33:27;;;;;;;7.47;6.68;;;;;;;15.72;100.00;98866.91;10227778;28;20085;-71
2023/03/13 15:38:26;;;;;;;7.95;7.15;;;;;;;15.62;100.00;98876.75;10226558;28;20056;-71
2023/03/13 15:43:23;;;;;;;10.55;8.18;;;;;;;15.57;100.00;98863.34;10230029;28;20084;-70
2023/03/13 15:48:22;;;;;;;7.85;7.15;;;;;;;15.50;100.00;98850.41;10231493;28;20530;-70
2023/03/13 15:53:22;;;;;;;7.45;6.75;;;;;;;15.52;100.00;98833.47;10236035;28;20045;-70
2023/03/13 15:58:19;;;;;;;7.93;6.95;;;;;;;16.49;100.00;98842.16;10229948;28;20046;-70
2023/03/13 16:03:21;;;;;;;7.00;6.43;;;;;;;16.17;100.00;98807.25;10231672;28;20422;-70
2023/03/13 16:08:20;;;;;;;7.80;7.10;;;;;;;16.03;100.00;98817.59;10228434;28;20556;-70
2023/03/13 16:13:30;;;;;;;;;;;;;;;16.88;100.00;98816.31;10231239;28;20045;-70
2023/03/13 16:18:27;;;;;;;7.43;6.75;;;;;;;16.43;100.00;98807.94;10231182;28;20019;-70
2023/03/13 16:23:23;;;;;;;8.05;7.35;;;;;;;15.89;100.00;98816.47;10229443;28;20164;-70
2023/03/13 16:28:20;;;;;;;7.53;6.93;;;;;;;15.45;100.00;98803.19;10220161;28;20076;-71
2023/03/13 16:33:16;;;;;;;9.38;6.72;;;;;;;15.44;100.00;98812.66;10224765;28;20073;-66
2023/03/13 16:38:13;;;;;;;7.60;6.30;;;;;;;15.17;100.00;98799.31;10229821;28;20049;-67
2023/03/13 16:43:11;;;;;;;8.85;6.95;;;;;;;15.13;100.00;98804.03;10230457;28;20164;-66
2023/03/13 16:48:15;;;;;;;7.80;6.25;;;;;;;15.08;100.00;98805.22;10221870;28;20045;-66
2023/03/13 16:53:11;;;;;;;7.90;7.22;;;;;;;14.98;100.00;98808.75;10225962;28;20074;-66
2023/03/13 16:58:11;;;;;;;7.20;6.60;;;;;;;14.83;100.00;98805.25;10228607;28;20052;-66
2023/03/13 17:03:07;;;;;;;15.15;6.95;;;;;;;14.69;100.00;98802.47;10228078;28;20080;-66
2023/03/13 17:08:04;;;;;;;7.78;6.50;;;;;;;14.59;100.00;98792.25;10222885;28;20063;-67
2023/03/13 17:13:01;;;;;;;7.70;7.00;;;;;;;14.55;100.00;98792.25;10221988;28;20158;-66
2023/03/13 17:17:58;;;;;;;7.10;6.40;;;;;;;14.57;100.00;98800.88;10221004;28;20525;-67
2023/03/13 17:22:55;;;;;;;7.15;6.43;;;;;;;14.58;100.00;98796.19;10219530;28;20053;-67
2023/03/13 17:27:52;;;;;;;6.93;6.32;;;;;;;14.43;100.00;98801.63;10215193;28;20527;-67
2023/03/13 17:32:49;;;;;;;8.75;6.95;;;;;;;14.47;100.00;98791.41;10226167;28;20053;-67
2023/03/13 17:37:46;;;;;;;7.13;6.53;;;;;;;14.46;100.00;98809.09;10219741;28;20053;-66
2023/03/13 17:42:43;;;;;;;7.18;6.65;;;;;;;14.33;100.00;98810.66;10226862;28;20041;-67
2023/03/13 17:47:40;;;;;;;7.80;7.07;;;;;;;14.10;100.00;98802.72;10219963;28;20640;-67
2023/03/13 17:52:37;;;;;;;7.65;6.88;;;;;;;14.18;100.00;98820.00;10227980;28;20041;-67
2023/03/13 17:57:33;;;;;;;7.28;6.68;;;;;;;14.06;100.00;98832.97;10221069;28;20130;-67
2023/03/13 18:02:30;;;;;;;11.10;6.72;;;;;;;14.09;100.00;98828.66;10227814;28;20042;-67
2023/03/13 18:07:28;;;;;;;7.43;6.60;;;;;;;14.05;100.00;98825.88;10226503;28;20487;-67
2023/03/13 18:12:25;;;;;;;7.25;6.43;;;;;;;13.86;100.00;98837.97;10232590;28;20134;-67
2023/03/13 18:17:23;;;;;;;8.32;7.20;;;;;;;13.82;100.00;98819.91;10227637;28;20045;-67
2023/03/13 18:22:24;;;;;;;9.57;6.32;;;;;;;13.57;100.00;98834.28;10227985;28;20138;-67
2023/03/13 18:27:20;;;;;;;9.32;6.57;;;;;;;13.63;100.00;98816.28;10225099;28;20539;-67
2023/03/13 18:32:17;;;;;;;7.55;6.25;;;;;;;13.59;100.00;98837.44;10227808;28;20061;-67
2023/03/13 18:37:26;;;;;;;10.35;7.15;;;;;;;13.53;100.00;98822.50;10232400;28;20049;-67
2023/03/13 18:42:23;;;;;;;7.95;6.68;;;;;;;13.31;100.00;98826.28;10226152;28;20057;-67
2023/03/13 18:47:22;;;;;;;10.73;7.57;;;;;;;13.22;100.00;98832.84;10226229;28;20649;-67
2023/03/13 18:52:18;;;;;;;11.38;7.45;;;;;;;13.10;100.00;98832.38;10235808;28;20108;-67
2023/03/13 18:57:18;;;;;;;10.65;6.90;;;;;;;13.01;100.00;98825.25;10223975;28;20093;-67
2023/03/13 19:02:16;;;;;;;10.20;6.50;;;;;;;12.80;100.00;98842.31;10233036;28;20431;-67
2023/03/13 19:07:24;;;;;;;8.93;5.45;;;;;;;12.69;100.00;98857.88;10223677;28;20045;-67
2023/03/13 19:12:21;;;;;;;12.27;6.40;;;;;;;12.69;100.00;98866.09;10228047;28;20099;-67
2023/03/13 19:17:22;;;;;;;10.30;6.00;;;;;;;12.61;100.00;98861.72;10225651;28;20095;-67
2023/03/13 19:22:19;;;;;;;13.68;6.32;;;;;;;12.59;100.00;98872.28;10220757;28;20084;-67
2023/03/13 19:27:16;;;;;;;7.40;5.55;;;;;;;12.49;100.00;98875.72;10226310;28;20422;-67
2023/03/13 19:32:14;;;;;;;11.63;6.03;;;;;;;12.54;100.00;98858.91;10225580;28;20414;-67
2023/03/13 19:37:13;;;;;;;13.63;6.00;;;;;;;12.38;100.00;98859.91;10226492;28;20049;-67
2023/03/13 19:42:09;;;;;;;8.90;6.13;;;;;;;12.41;100.00;98863.88;10229098;28;20136;-66
2023/03/13 19:47:12;;;;;;;11.73;7.45;;;;;;;12.32;100.00;98855.97;10224749;28;20045;-68
2023/03/13 19:52:08;;;;;;;8.68;6.20;;;;;;;12.19;100.00;98873.81;10230298;28;20578;-67
2023/03/13 19:57:05;;;;;;;16.23;7.28;;;;;;;12.08;100.00;98867.41;10217841;28;20053;-68
2023/03/13 20:02:02;;;;;;;10.15;6.38;;;;;;;11.96;100.00;98855.53;10202452;28;20129;-67
2023/03/13 20:07:01;;;;;;;8.45;5.78;;;;;;;11.83;100.00;98851.41;10228166;28;20045;-68
2023/03/13 20:11:57;;;;;;;10.20;6.00;;;;;;;11.69;100.00;98851.22;10223975;28;20081;-68
2023/03/13 20:16:54;;;;;;;8.02;6.00;;;;;;;11.61;100.00;98822.97;10214347;28;20053;-68
2023/03/13 20:21:51;;;;;;;11.25;6.75;;;;;;;11.54;100.00;98815.47;10211576;28;20041;-68
2023/03/13 20:26:47;;;;;;;18.17;6.65;;;;;;;11.50;100.00;98822.03;10212878;28;20057;-68
2023/03/13 20:31:44;;;;;;;13.23;7.03;;;;;;;11.39;100.00;98832.81;10225980;28;20543;-68
2023/03/13 20:36:40;;;;;;;13.80;6.72;;;;;;;11.31;100.00;98825.69;10243982;28;20053;-68
2023/03/13 20:41:36;;;;;;;14.07;6.53;;;;;;;11.28;100.00;98820.94;10227580;28;20719;-68
2023/03/13 20:46:33;;;;;;;17.33;6.75;;;;;;;11.35;100.00;98832.00;10223282;28;20041;-68
2023/03/13 20:51:31;;;;;;;13.65;6.15;;;;;;;11.27;100.00;98827.56;10229630;28;20111;-68
2023/03/13 20:56:27;;;;;;;12.77;6.38;;;;;;;11.18;100.00;98818.84;10226717;28;20116;-68
2023/03/13 21:01:24;;;;;;;9.80;6.72;;;;;;;11.34;100.00;98819.47;10227924;28;20042;-68
2023/03/13 21:06:22;;;;;;;12.38;6.18;;;;;;;11.18;100.00;98810.63;10227729;28;20037;-68
2023/03/13 21:11:21;;;;;;;10.57;6.38;;;;;;;11.20;100.00;98805.59;10218371;28;20056;-67
2023/03/13 21:16:18;;;;;;;13.43;6.72;;;;;;;11.30;100.00;98786.59;10228058;28;20053;-67
2023/03/13 21:21:17;;;;;;;12.30;6.70;;;;;;;11.34;100.00;98792.88;10226854;28;20495;-67
2023/03/13 21:26:14;;;;;;;13.88;6.20;;;;;;;11.37;100.00;98807.78;10224602;28;20050;-67
2023/03/13 21:31:14;;;;;;;12.15;6.18;;;;;;;11.24;100.00;98820.91;10226848;28;20053;-66
2023/03/13 21:36:12;;;;;;;11.30;6.30;;;;;;;11.06;100.00;98820.63;10228705;28;20472;-67
2023/03/13 21:41:11;;;;;;;9.13;6.18;;;;;;;11.06;100.00;98828.81;10232523;28;20065;-67
2023/03/13 21:46:09;;;;;;;13.27;6.20;;;;;;;10.93;100.00;98839.19;10235384;28;20419;-67
2023/03/13 21:51:06;;;;;;;10.30;5.70;;;;;;;10.90;100.00;98850.03;10236906;28;20049;-67
2023/03/13 21:56:03;;;;;;;5.97;5.38;;;;;;;11.10;100.00;98848.81;10235960;28;20037;-67
2023/03/13 22:00:59;;;;;;;6.82;5.30;;;;;;;11.11;100.00;98850.38;10223292;28;20418;-67
2023/03/13 22:05:56;;;;;;;8.52;5.18;;;;;;;11.11;100.00;98866.78;10238170;28;20041;-67
2023/03/13 22:10:53;;;;;;;10.18;6.30;;;;;;;11.13;100.00;98852.75;10236979;28;20546;-67
2023/03/13 22:15:51;;;;;;;8.38;5.00;;;;;;;11.07;100.00;98848.75;10229036;28;20187;-67
2023/03/13 22:20:48;;;;;;;7.70;5.78;;;;;;;11.13;100.00;98834.41;10231484;28;20049;-67
2023/03/13 22:25:46;;;;;;;6.78;5.20;;;;;;;11.08;100.00;98823.00;10234504;28;20041;-67
2023/03/13 22:30:44;;;;;;;7.25;5.75;;;;;;;11.12;100.00;98835.56;10219739;28;20132;-72
2023/03/13 22:35:41;;;;;;;6.35;5.35;;;;;;;11.26;100.00;98823.28;10231544;28;20060;-69
2023/03/13 22:40:37;;;;;;;8.30;5.03;;;;;;;11.36;100.00;98822.63;10229489;28;20046;-69
2023/03/13 22:45:35;;;;;;;9.23;5.80;;;;;;;11.23;100.00;98824.00;10233280;28;20125;-68
2023/03/13 22:50:33;;;;;;;7.70;6.00;;;;;;;11.19;100.00;98828.63;10237003;28;20132;-66
2023/03/13 22:55:32;;;;;;;6.57;5.53;;;;;;;11.14;100.00;98816.84;10235845;28;20053;-66
2023/03/13 23:00:28;;;;;;;9.18;6.53;;;;;;;11.02;100.00;98818.97;10233386;28;20108;-67